Skip Navigation Links
NOAA logo - Click to go to the NOAA homepage
NOAA's National Weather Service
Alaska Aviation Weather Unit
  NWS logo - Click to go to the NWS homepage
Left Navbar Graphic     02 AKDT = 10 GMT

   
NOAA is celebrating 200 years of science, service, and stewardship. Visit the NOAA 200th celebration Web site to learn more.
USA.gov is the U.S. Government's official Web portal to all Federal, state and local government Web resources and services.
Facebook
NWS on Facebook

AAWU Home :: Display TAF Add Bookmark
METAR PADE 270553Z AUTO 00000KT 10SM CLR M24/M27 A2998 RMK AO2 SLP152
     60000 T12391272 11189 21239 58005 TSNO $=

METAR PADE 270653Z AUTO 21003KT 10SM CLR M27/M31 A2998 RMK AO2 SLP152
     T12721306 TSNO $=

METAR PADE 270753Z AUTO 00000KT 10SM CLR M29/M33 A2998 RMK AO2 SLP152
     I1000 T12891328 TSNO $=

METAR PADE 270853Z AUTO 00000KT 10SM CLR M27/M31 A2997 RMK AO2 SLP151
     I3000 T12721306 411891311 57001 TSNO $=

METAR PADE 270953Z AUTO 23003KT 10SM CLR M30/M34 A2997 RMK AO2 SLP150
     T13001339 TSNO $=


NOAA's National Weather Service
Alaska Aviation Weather Unit
6930 Sand Lake Road
Anchorage, AK 99502-1845
Disclaimer
Credits
Glossary
Privacy Policy
About Us
Career Opportunities
Contact AAWU Internet Services Site last modified: April, 17th 2012